Airfield :
LOGIN :

Register | Disclaimer

   EN    FR    IT 

 










Legend :    VFR   Marginal VFR   IFR   Intensive IFR   Very Intensive IFR
Visi :
Ceiling :
>= 8 km
>= 3000ft
5 to 8 km
1000 to 3000 ft
1500m to 5 km
500 to 1000 ft
800 to 1500m
200 to 500 ft
< 800m
< 200 ft
Symbols :   Thunderstorms  Fog  Heavy snow  Heavy precipitations  Wind > 20 kt
SIGMETs :     Misc.  Thunderstorms  Icing  Turbulence  Mountain Waves  Volcanic Ashes






- Airport Elevation : 16 ft
- IATA code : SDR


LEXJ - Santander Cantabria

CURRENT METAR :
  • 171100Z 35005KT 290V050 9999 FEW016 BKN030 12/09 Q1023

EXPIRED METARs :
  • 171030Z 31005KT 270V360 9999 FEW012 SCT024 BKN040 12/10 Q1023
  • 171000Z 31008KT 290V350 3000 -DZ SCT014 BKN022 BKN034 11/10 Q1023
  • 170947Z 30009KT 270V360 3000 -DZ BKN014 BKN024 BKN058 11/09 Q1023
  • 170930Z 30009KT 7000 FEW014 BKN024 BKN058 12/10 Q1023
  • 170900Z 29007KT 9999 FEW014 SCT030 BKN060 12/10 Q1023
  • 170830Z 24004G14KT 170V320 5000 -RA SCT010 BKN015 BKN048 11/10 Q1023
  • 170800Z 21004KT 160V280 8000 SCT014 SCT027 BKN048 11/10 Q1023
  • 170747Z 22004KT 190V250 3000 -DZ BR SCT012 BKN024 BKN048 11/10 Q1023
  • 170730Z 25004KT 210V290 9999 SCT016 BKN038 11/10 Q1023
  • 170700Z 29006KT 260V320 4000 -DZ BR FEW009 BKN018 BKN046 11/10 Q1023
  • 170630Z 30009KT 7000 FEW009 SCT018 BKN034 10/09 Q1023

TAF TAF LEXJ
Valid from the 17 at 09:00 until the 18 at 09:00 UTC


170800Z 1709/1809 33009KT 9999 FEW015 BKN030 TX14/1715Z TN10/1805Z
PROB30
TEMPO 1709/1713 3000 RADZ BKN010
PROB30
TEMPO 1802/1808 3000 RADZ BKN010



MET'MAP, your aeronautical weather chart ! - Copyright ORBIFLY December 2007 - Disclaimer

ORBIFLY MET'MAP TEAM :

Programming & Development : Alexandra Zaïnal
Original concept : Baudouin d'Aumeries
Technical & hardware support : Manuel Goepfert
Assistance : Marc-Olivier Méhu




SOURCES & CREDITS :

   NOAA